Time;durP1;ratioP1;P1;durP2;ratioP2;P2;SDS_P1;SDS_P2;PMS_P1;PMS_P2;Temp;Humidity;BMP_temperature;BMP_pressure;BME280_temperature;BME280_humidity;BME280_pressure;Samples;Min_cycle;Max_cycle;Signal;HPM_P1;HPM_P2
2022/08/15 00:02:23;;;;;;;5.20;4.65;;;;;;;18.57;67.44;94266.03;4979280;28;20212;-62
2022/08/15 00:04:49;;;;;;;5.10;4.70;;;;;;;18.49;67.78;94270.59;4997885;28;20202;-63
2022/08/15 00:07:14;;;;;;;5.45;5.00;;;;;;;18.50;67.86;94282.06;5000333;28;20219;-62
2022/08/15 00:09:40;;;;;;;5.82;5.43;;;;;;;18.33;68.39;94284.44;4991490;28;20294;-63
2022/08/15 00:12:06;;;;;;;6.40;5.90;;;;;;;18.27;68.84;94288.00;4992039;28;20243;-63
2022/08/15 00:14:35;;;;;;;6.50;6.00;;;;;;;18.26;69.02;94284.53;4991542;28;20226;-62
2022/08/15 00:17:09;;;;;;;6.75;6.15;;;;;;;18.25;68.96;94285.53;4996575;28;20204;-62
2022/08/15 00:19:35;;;;;;;6.43;5.75;;;;;;;18.31;68.96;94283.88;4980043;28;20330;-62
2022/08/15 00:22:06;;;;;;;6.00;5.60;;;;;;;18.29;68.74;94275.28;4981026;28;20228;-62
2022/08/15 00:24:33;;;;;;;6.47;5.97;;;;;;;18.24;68.95;94283.09;4987963;28;20227;-62
2022/08/15 00:27:01;;;;;;;7.22;6.57;;;;;;;18.24;68.91;94272.47;4994389;28;20216;-62
2022/08/15 00:29:29;;;;;;;7.63;7.03;;;;;;;18.19;69.30;94280.28;4986228;28;20230;-63
2022/08/15 00:31:55;;;;;;;7.72;7.13;;;;;;;18.21;69.26;94272.91;4990158;28;20214;-63
2022/08/15 00:34:22;;;;;;;8.00;7.30;;;;;;;18.08;69.92;94268.50;4994225;28;20301;-63
2022/08/15 00:36:50;;;;;;;8.10;7.40;;;;;;;18.13;70.14;94273.16;4990921;28;20228;-63
2022/08/15 00:39:21;;;;;;;8.70;7.85;;;;;;;18.08;70.28;94271.16;4992329;28;20234;-62
2022/08/15 00:41:48;;;;;;;8.75;8.05;;;;;;;18.15;70.02;94273.75;4992626;28;20297;-63
2022/08/15 00:44:16;;;;;;;9.00;8.40;;;;;;;18.08;70.29;94263.97;4993599;28;20287;-63
2022/08/15 00:46:52;;;;;;;8.90;8.20;;;;;;;18.07;70.34;94277.50;4989392;28;20195;-63
2022/08/15 00:49:19;;;;;;;8.50;7.72;;;;;;;18.03;70.55;94279.78;4995763;28;20357;-62
2022/08/15 00:52:03;;;;;;;9.63;8.82;;;;;;;18.08;70.15;94274.63;4991346;28;20234;-61
2022/08/15 00:54:38;;;;;;;9.38;8.57;;;;;;;18.14;70.01;94272.94;4991814;28;20223;-62
2022/08/15 00:57:14;;;;;;;8.82;8.13;;;;;;;18.04;70.15;94270.78;4995724;28;20261;-63
2022/08/15 00:59:47;;;;;;;9.40;8.63;;;;;;;18.10;69.90;94268.28;4999783;28;20215;-62
2022/08/15 01:02:14;;;;;;;9.40;8.60;;;;;;;18.11;69.91;94268.06;4990872;28;20262;-62
2022/08/15 01:04:40;;;;;;;9.52;8.63;;;;;;;18.03;70.02;94258.47;4994560;28;20226;-62
2022/08/15 01:07:07;;;;;;;9.18;8.43;;;;;;;18.07;70.01;94261.56;5006800;28;20218;-62
2022/08/15 01:09:35;;;;;;;9.15;8.45;;;;;;;18.00;69.82;94256.25;5009087;28;20254;-61
2022/08/15 01:12:05;;;;;;;9.50;8.73;;;;;;;18.00;70.10;94258.91;5011730;28;20332;-62
2022/08/15 01:14:31;;;;;;;10.05;9.13;;;;;;;18.03;70.01;94258.47;4998539;28;20214;-62
2022/08/15 01:16:58;;;;;;;9.65;8.93;;;;;;;18.03;69.75;94252.34;4985730;28;20243;-62
2022/08/15 01:19:32;;;;;;;9.65;8.75;;;;;;;17.94;69.81;94249.16;4988265;28;20263;-62
2022/08/15 01:22:00;;;;;;;9.73;8.82;;;;;;;17.96;69.92;94251.59;4981864;28;20243;-62
2022/08/15 01:24:51;;;;;;;8.73;8.02;;;;;;;18.00;69.65;94250.13;4975561;28;20235;-63
2022/08/15 01:27:17;;;;;;;10.27;9.48;;;;;;;17.92;69.90;94256.53;4994705;28;20227;-62
2022/08/15 01:29:43;;;;;;;9.32;8.63;;;;;;;17.79;70.52;94254.78;4984150;28;20223;-63
2022/08/15 01:32:08;;;;;;;9.15;8.35;;;;;;;17.78;70.54;94250.47;4981257;28;20200;-62
2022/08/15 01:34:34;;;;;;;9.40;8.70;;;;;;;17.80;70.94;94261.72;4991467;28;20220;-63
2022/08/15 01:37:00;;;;;;;9.85;8.95;;;;;;;17.82;70.71;94261.50;4989983;28;20231;-62
2022/08/15 01:39:38;;;;;;;9.98;9.27;;;;;;;17.73;71.52;94260.13;4988178;28;20240;-63
2022/08/15 01:42:41;;;;;;;9.45;8.65;;;;;;;17.74;71.73;94261.72;4992811;28;20278;-63
2022/08/15 01:45:14;;;;;;;9.60;8.70;;;;;;;17.74;71.46;94264.38;5006679;28;20250;-62
2022/08/15 01:47:47;;;;;;;10.88;9.88;;;;;;;17.80;71.10;94267.06;4989127;28;20227;-62
2022/08/15 01:50:17;;;;;;;10.00;9.20;;;;;;;17.85;70.72;94261.91;4980573;28;20242;-63
2022/08/15 01:53:09;;;;;;;10.85;9.95;;;;;;;17.79;70.96;94267.25;5000752;28;20215;-63
2022/08/15 01:55:43;;;;;;;9.75;8.85;;;;;;;17.88;70.90;94251.84;5007125;28;20231;-63
2022/08/15 01:58:08;;;;;;;10.98;9.85;;;;;;;17.85;70.38;94245.94;5006463;28;20246;-63
2022/08/15 02:00:34;;;;;;;11.02;10.10;;;;;;;17.86;70.25;94249.41;5009717;28;20226;-62
2022/08/15 02:03:01;;;;;;;10.50;9.60;;;;;;;17.83;70.40;94242.69;5008128;28;20242;-62
2022/08/15 02:05:26;;;;;;;10.40;9.60;;;;;;;17.75;71.16;94244.75;5006224;28;20199;-63
2022/08/15 02:07:52;;;;;;;11.07;10.27;;;;;;;17.76;70.84;94239.22;4995554;28;20215;-63
2022/08/15 02:10:18;;;;;;;10.35;9.45;;;;;;;17.75;70.81;94242.06;4991741;28;20219;-63
2022/08/15 02:12:44;;;;;;;10.40;9.60;;;;;;;17.82;70.41;94238.38;4989815;28;20269;-64
2022/08/15 02:15:17;;;;;;;10.20;9.45;;;;;;;17.81;70.37;94231.44;4990485;28;20247;-63
2022/08/15 02:17:43;;;;;;;10.77;9.95;;;;;;;17.75;70.49;94237.59;4996427;28;20241;-63
2022/08/15 02:20:11;;;;;;;11.10;10.20;;;;;;;17.80;70.06;94243.13;5014436;28;20199;-62
2022/08/15 02:22:36;;;;;;;11.18;10.18;;;;;;;17.72;70.18;94239.84;4991335;28;20330;-63
2022/08/15 02:25:04;;;;;;;10.65;9.82;;;;;;;17.73;70.39;94249.47;4989828;28;20280;-63
2022/08/15 02:27:33;;;;;;;11.20;10.30;;;;;;;17.64;70.96;94254.22;4994321;28;20305;-63
2022/08/15 02:30:11;;;;;;;11.00;10.15;;;;;;;17.58;71.43;94247.91;5005517;28;20230;-63
2022/08/15 02:32:39;;;;;;;10.40;9.40;;;;;;;17.54;71.75;94257.34;4996558;28;20230;-62
2022/08/15 02:35:06;;;;;;;11.80;10.70;;;;;;;17.51;72.13;94257.78;4979563;28;20299;-62
2022/08/15 02:37:32;;;;;;;11.60;10.55;;;;;;;17.51;72.10;94263.09;4988040;28;20224;-63
2022/08/15 02:39:57;;;;;;;11.95;10.93;;;;;;;17.56;71.75;94265.94;4990636;28;20236;-62
2022/08/15 02:42:23;;;;;;;12.57;11.48;;;;;;;17.57;71.34;94264.91;4989504;28;20599;-62
2022/08/15 02:44:49;;;;;;;12.70;11.63;;;;;;;17.64;71.29;94276.31;4985832;28;20302;-63
2022/08/15 02:47:15;;;;;;;13.23;12.13;;;;;;;17.64;71.01;94273.66;4978399;28;20313;-63
2022/08/15 02:49:43;;;;;;;13.68;12.52;;;;;;;17.66;70.94;94280.59;5009922;28;20198;-63
2022/08/15 02:52:11;;;;;;;14.00;12.70;;;;;;;17.61;71.08;94278.56;4982801;28;20243;-63
2022/08/15 02:54:37;;;;;;;13.68;12.48;;;;;;;17.64;70.99;94278.97;4990792;28;20227;-63
2022/08/15 02:57:03;;;;;;;13.20;11.95;;;;;;;17.66;71.00;94285.91;4986967;28;20575;-65
2022/08/15 02:59:30;;;;;;;13.57;12.38;;;;;;;17.71;70.54;94288.75;4981848;28;20278;-63
2022/08/15 03:01:56;;;;;;;13.90;12.73;;;;;;;17.76;70.50;94286.28;4999103;28;20291;-63
2022/08/15 03:04:23;;;;;;;13.63;12.52;;;;;;;17.76;70.45;94291.59;4994004;28;20232;-63
2022/08/15 03:06:50;;;;;;;13.70;12.35;;;;;;;17.83;69.97;94293.22;4978611;28;20215;-63
2022/08/15 03:09:16;;;;;;;14.55;13.30;;;;;;;17.72;70.44;94295.69;4977377;28;20235;-63
2022/08/15 03:11:43;;;;;;;14.88;13.68;;;;;;;17.67;71.06;94291.03;4979180;28;20261;-63
2022/08/15 03:14:12;;;;;;;15.23;13.95;;;;;;;17.64;70.94;94294.09;4977646;28;20293;-63
2022/08/15 03:16:40;;;;;;;15.45;14.05;;;;;;;17.72;70.79;94301.00;4994271;28;20334;-63
2022/08/15 03:19:06;;;;;;;15.95;14.55;;;;;;;17.75;70.50;94304.06;5006778;28;20219;-63
2022/08/15 03:21:31;;;;;;;15.18;13.88;;;;;;;17.63;70.91;94295.94;5000601;28;20228;-63
2022/08/15 03:23:58;;;;;;;14.77;13.57;;;;;;;17.56;71.13;94308.47;4991509;28;20242;-61
2022/08/15 03:26:25;;;;;;;15.93;14.48;;;;;;;17.56;71.28;94308.47;4986110;28;20212;-62
2022/08/15 03:28:51;;;;;;;16.08;14.82;;;;;;;17.49;71.48;94312.19;4979366;28;20208;-62
2022/08/15 03:31:17;;;;;;;15.50;14.07;;;;;;;17.45;71.51;94317.09;4977991;28;20232;-62
2022/08/15 03:33:46;;;;;;;15.88;14.48;;;;;;;17.39;71.75;94320.59;4976439;28;20776;-62
2022/08/15 03:36:17;;;;;;;16.23;13.65;;;;;;;17.40;71.78;94322.22;4974855;28;20220;-62
2022/08/15 03:38:45;;;;;;;16.73;15.10;;;;;;;17.40;71.66;94316.91;4980378;28;20238;-63
2022/08/15 03:41:12;;;;;;;16.08;14.68;;;;;;;17.38;71.69;94332.25;4981392;28;20202;-62
2022/08/15 03:43:38;;;;;;;17.58;16.08;;;;;;;17.39;71.60;94334.69;4983870;28;20227;-63
2022/08/15 03:46:08;;;;;;;17.42;16.02;;;;;;;17.40;71.70;94330.19;5004404;28;20272;-63
2022/08/15 03:48:38;;;;;;;17.80;16.35;;;;;;;17.48;71.03;94316.69;4996543;28;20230;-63
2022/08/15 03:51:05;;;;;;;17.83;16.23;;;;;;;17.40;71.04;94325.72;4987917;28;20235;-63
2022/08/15 03:53:35;;;;;;;18.58;16.90;;;;;;;17.50;70.61;94319.94;4995053;28;20226;-63
2022/08/15 03:56:03;;;;;;;17.85;16.35;;;;;;;17.51;70.50;94320.72;4995152;28;20207;-64
2022/08/15 03:58:30;;;;;;;17.67;16.13;;;;;;;17.55;70.22;94328.09;4993697;28;20737;-62
2022/08/15 04:00:58;;;;;;;17.70;16.30;;;;;;;17.50;70.44;94329.75;4994837;28;20223;-63
2022/08/15 04:03:27;;;;;;;18.10;16.40;;;;;;;17.52;70.42;94323.19;5008236;28;20219;-63
2022/08/15 04:05:57;;;;;;;17.90;16.30;;;;;;;17.54;70.19;94323.81;4983960;28;20255;-64
2022/08/15 04:08:25;;;;;;;18.75;17.15;;;;;;;17.67;69.83;94328.25;4992793;28;20298;-63
2022/08/15 04:10:52;;;;;;;19.48;17.77;;;;;;;17.60;70.39;94325.59;4989546;28;20218;-63
2022/08/15 04:13:23;;;;;;;18.75;17.15;;;;;;;17.58;70.50;94326.84;4990717;28;20228;-63
2022/08/15 04:15:49;;;;;;;19.05;17.38;;;;;;;17.62;70.26;94334.19;4987718;28;20223;-63
2022/08/15 04:18:14;;;;;;;19.50;17.85;;;;;;;17.65;70.31;94335.63;4987212;28;20227;-63
2022/08/15 04:20:40;;;;;;;19.48;17.75;;;;;;;17.67;70.22;94328.25;4984045;28;20295;-63
2022/08/15 04:23:07;;;;;;;19.00;17.40;;;;;;;17.73;70.00;94327.41;5015016;28;20203;-62
2022/08/15 04:25:39;;;;;;;20.67;18.70;;;;;;;17.78;69.83;94324.09;4983107;28;20258;-62
2022/08/15 04:28:05;;;;;;;19.83;18.10;;;;;;;17.83;69.72;94322.47;4989938;28;20227;-62
2022/08/15 04:30:34;;;;;;;20.83;18.85;;;;;;;17.75;70.12;94328.00;4991465;28;20230;-63
2022/08/15 04:33:15;;;;;;;21.23;19.42;;;;;;;17.78;70.10;94329.44;4999820;28;20234;-63
2022/08/15 04:35:47;;;;;;;21.60;19.73;;;;;;;17.81;69.86;94321.03;4981300;28;20223;-63
2022/08/15 04:38:13;;;;;;;22.73;20.73;;;;;;;17.85;69.78;94309.78;4976808;28;20282;-62
2022/08/15 04:40:38;;;;;;;21.92;20.02;;;;;;;17.93;69.71;94321.16;4987315;28;20200;-62
2022/08/15 04:43:04;;;;;;;22.55;20.65;;;;;;;18.00;69.32;94320.09;5007099;28;20717;-62
2022/08/15 04:45:32;;;;;;;22.25;20.17;;;;;;;18.01;69.28;94321.72;4993702;28;20231;-63
2022/08/15 04:48:02;;;;;;;22.45;20.55;;;;;;;18.14;69.04;94330.66;4981328;28;20280;-63
2022/08/15 04:50:30;;;;;;;22.77;20.83;;;;;;;18.28;68.68;94326.88;4993515;28;20203;-63
2022/08/15 04:52:57;;;;;;;23.63;21.35;;;;;;;18.40;68.38;94333.13;4992344;28;20207;-62
2022/08/15 04:55:24;;;;;;;23.00;20.80;;;;;;;18.43;68.45;94332.69;4991586;28;20232;-63
2022/08/15 04:57:51;;;;;;;25.13;22.90;;;;;;;18.59;68.12;94343.84;4991372;28;20220;-63
2022/08/15 05:00:19;;;;;;;24.50;22.33;;;;;;;18.55;68.44;94331.97;4997325;28;20222;-63
2022/08/15 05:03:08;;;;;;;26.65;24.23;;;;;;;18.60;68.34;94338.28;5007782;28;20322;-62
2022/08/15 05:05:40;;;;;;;28.48;25.98;;;;;;;18.67;68.23;94331.06;4999011;28;20331;-62
2022/08/15 05:08:06;;;;;;;28.13;25.63;;;;;;;18.70;68.11;94329.81;4995486;28;20286;-62
2022/08/15 05:10:32;;;;;;;28.02;25.33;;;;;;;18.78;68.00;94326.91;4993145;28;20362;-63
2022/08/15 05:13:07;;;;;;;27.42;24.92;;;;;;;18.85;67.54;94335.66;4981251;28;20273;-62
2022/08/15 05:15:33;;;;;;;27.10;24.60;;;;;;;18.87;67.60;94319.44;4998856;28;20223;-63
2022/08/15 05:17:58;;;;;;;27.48;24.88;;;;;;;18.99;67.11;94319.53;4986001;28;20238;-63
2022/08/15 05:20:24;;;;;;;26.40;24.02;;;;;;;18.93;67.29;94327.38;4987765;28;20212;-63
2022/08/15 05:22:55;;;;;;;27.17;24.63;;;;;;;19.00;67.17;94321.16;4989110;28;20207;-63
2022/08/15 05:25:22;;;;;;;26.17;23.77;;;;;;;19.02;67.15;94319.09;4985645;28;20224;-62
2022/08/15 05:27:47;;;;;;;25.92;23.63;;;;;;;19.22;66.76;94321.53;4980307;28;20250;-63
2022/08/15 05:30:13;;;;;;;27.25;24.85;;;;;;;19.33;66.33;94313.63;4974868;28;20232;-63
2022/08/15 05:32:39;;;;;;;26.92;24.52;;;;;;;19.33;66.20;94318.94;4977648;28;20222;-63
2022/08/15 05:35:06;;;;;;;27.50;24.90;;;;;;;19.35;66.09;94327.56;4987801;28;20257;-62
2022/08/15 05:37:32;;;;;;;27.10;24.63;;;;;;;19.28;66.40;94321.47;4983452;28;20231;-63
2022/08/15 05:39:58;;;;;;;27.05;24.45;;;;;;;19.24;66.44;94320.28;4989647;28;20231;-63
2022/08/15 05:42:35;;;;;;;27.52;25.13;;;;;;;19.21;66.92;94325.25;4996481;28;20231;-64
2022/08/15 05:45:22;;;;;;;27.00;24.65;;;;;;;19.29;66.64;94328.41;4998649;28;20227;-63
2022/08/15 05:48:02;;;;;;;27.13;24.67;;;;;;;19.34;66.35;94323.22;4976455;28;20219;-63
2022/08/15 05:50:27;;;;;;;26.90;24.42;;;;;;;19.53;65.78;94323.22;4980805;28;20301;-62
2022/08/15 05:53:31;;;;;;;26.52;24.17;;;;;;;19.48;66.09;94331.88;4980159;28;20627;-62
2022/08/15 05:56:27;;;;;;;25.20;22.95;;;;;;;19.54;66.23;94335.50;5015216;28;20273;-62
2022/08/15 05:58:59;;;;;;;25.58;23.38;;;;;;;19.58;65.70;94329.50;5012979;28;20249;-62
2022/08/15 06:01:42;;;;;;;24.83;22.50;;;;;;;19.74;64.87;94346.78;4988078;28;20266;-63
2022/08/15 06:04:18;;;;;;;24.30;21.98;;;;;;;19.88;63.88;94331.41;4993205;28;20242;-62
2022/08/15 06:06:47;;;;;;;25.27;22.98;;;;;;;20.00;63.55;94324.28;4988172;28;20237;-62
2022/08/15 06:09:39;;;;;;;25.80;23.60;;;;;;;20.03;63.13;94329.16;4998052;28;20254;-62
2022/08/15 06:12:12;;;;;;;25.67;23.40;;;;;;;19.95;63.63;94323.34;5014793;28;20310;-62
2022/08/15 06:14:45;;;;;;;26.48;24.05;;;;;;;19.95;63.84;94331.34;5011097;28;20313;-62
2022/08/15 06:17:15;;;;;;;26.35;24.00;;;;;;;19.97;63.75;94337.28;4998612;28;20225;-62
2022/08/15 06:19:46;;;;;;;27.15;24.83;;;;;;;19.98;63.59;94336.22;4996955;28;20229;-62
2022/08/15 06:22:22;;;;;;;25.02;22.83;;;;;;;20.11;63.16;94328.03;4992051;28;20245;-63
2022/08/15 06:25:09;;;;;;;25.80;23.70;;;;;;;20.17;62.93;94331.63;4994331;28;20224;-62
2022/08/15 06:27:58;;;;;;;27.02;24.73;;;;;;;20.23;62.33;94331.56;4933097;29;20239;-63
2022/08/15 06:31:05;;;;;;;25.80;23.60;;;;;;;20.30;62.07;94339.44;4950845;28;20225;-63
2022/08/15 06:33:48;;;;;;;26.45;24.05;;;;;;;20.31;62.14;94345.59;4881288;29;20314;-62
2022/08/15 06:36:21;;;;;;;25.33;23.17;;;;;;;20.37;61.57;94331.31;4873036;29;20279;-62
2022/08/15 06:38:50;;;;;;;26.17;23.95;;;;;;;20.36;61.80;94343.88;4856454;29;20345;-63
2022/08/15 06:41:27;;;;;;;26.08;23.42;;;;;;;20.33;61.81;94339.00;4872077;29;20199;-63
2022/08/15 06:43:53;;;;;;;26.70;24.40;;;;;;;20.34;61.66;94339.78;4876497;29;20215;-65
2022/08/15 06:46:21;;;;;;;28.48;25.83;;;;;;;20.31;61.91;94345.59;4876472;29;20345;-65
2022/08/15 06:48:48;;;;;;;26.13;23.88;;;;;;;20.25;62.35;94340.13;4867170;29;20234;-64
2022/08/15 06:51:15;;;;;;;25.58;23.38;;;;;;;20.43;61.70;94347.25;4877310;29;20235;-65
2022/08/15 06:53:52;;;;;;;26.45;24.20;;;;;;;20.60;60.39;94352.78;4876271;29;20226;-65
2022/08/15 06:56:18;;;;;;;26.42;24.15;;;;;;;20.70;60.06;94353.03;4885216;29;20222;-64
2022/08/15 06:59:18;;;;;;;26.15;23.98;;;;;;;20.89;59.61;94360.94;4889230;29;20288;-65
2022/08/15 07:01:58;;;;;;;26.73;24.50;;;;;;;20.82;59.52;94360.22;4888371;29;20258;-66
2022/08/15 07:05:05;;;;;;;28.48;26.08;;;;;;;20.78;59.91;94364.41;4937387;28;20227;-66
2022/08/15 07:07:59;;;;;;;27.58;25.17;;;;;;;21.04;59.21;94365.84;4997031;28;20281;-65
2022/08/15 07:10:33;;;;;;;27.70;25.27;;;;;;;21.04;59.12;94363.97;5006128;28;20322;-64
2022/08/15 07:13:12;;;;;;;26.17;23.92;;;;;;;21.08;58.90;94358.97;4991217;28;20231;-64
2022/08/15 07:16:12;;;;;;;29.02;26.52;;;;;;;21.22;58.54;94364.88;4988895;28;20219;-64
2022/08/15 07:18:44;;;;;;;27.17;24.85;;;;;;;21.31;58.39;94366.16;5003892;28;20341;-66
2022/08/15 07:21:19;;;;;;;27.48;24.92;;;;;;;21.24;58.71;94352.91;5002637;28;20227;-65
2022/08/15 07:24:09;;;;;;;28.52;26.02;;;;;;;21.39;58.72;94354.34;4994989;28;20227;-65
2022/08/15 07:26:51;;;;;;;27.10;24.70;;;;;;;21.65;57.93;94355.66;4998028;28;20231;-65
2022/08/15 07:29:36;;;;;;;27.83;25.40;;;;;;;21.70;57.11;94353.09;4980321;28;20229;-65
2022/08/15 07:32:28;;;;;;;27.85;25.48;;;;;;;21.85;57.33;94356.06;4994544;28;20258;-65
2022/08/15 07:35:04;;;;;;;27.77;25.25;;;;;;;21.99;56.84;94372.66;5001953;28;20222;-64
2022/08/15 07:37:37;;;;;;;28.00;25.58;;;;;;;21.89;56.03;94365.28;4987572;28;20266;-64
2022/08/15 07:40:29;;;;;;;27.33;25.00;;;;;;;21.82;56.72;94364.59;4983157;28;20570;-66
2022/08/15 07:42:56;;;;;;;27.95;25.45;;;;;;;21.82;56.39;94367.25;4997192;28;20246;-65
2022/08/15 07:45:32;;;;;;;26.90;24.70;;;;;;;22.00;56.17;94374.31;5000437;28;20307;-65
2022/08/15 07:48:19;;;;;;;27.15;24.95;;;;;;;21.83;56.55;94368.88;4980897;28;20237;-64
2022/08/15 07:51:00;;;;;;;25.77;23.77;;;;;;;21.68;57.24;94372.06;4979965;28;20233;-64
2022/08/15 07:53:26;;;;;;;26.55;24.33;;;;;;;21.91;56.83;94373.03;4994823;28;20210;-65
2022/08/15 07:56:16;;;;;;;26.80;24.52;;;;;;;21.98;56.44;94377.22;4999914;28;20238;-64
2022/08/15 07:58:43;;;;;;;26.05;23.88;;;;;;;22.16;56.13;94372.72;4965141;28;20228;-64
2022/08/15 08:01:23;;;;;;;26.73;24.33;;;;;;;22.04;56.28;94375.44;4979145;28;20326;-65
2022/08/15 08:04:00;;;;;;;26.70;24.45;;;;;;;22.04;56.53;94380.81;4978595;28;20223;-63
2022/08/15 08:06:36;;;;;;;26.10;23.80;;;;;;;21.96;57.23;94376.63;4976845;28;20232;-65
2022/08/15 08:09:25;;;;;;;25.52;23.33;;;;;;;22.05;56.59;94389.63;4979773;28;20232;-64
2022/08/15 08:12:01;;;;;;;25.95;23.88;;;;;;;22.04;56.50;94388.84;4978877;28;20232;-66
2022/08/15 08:14:52;;;;;;;24.80;22.77;;;;;;;21.97;56.29;94380.97;4979482;28;20206;-66
2022/08/15 08:17:42;;;;;;;25.75;23.55;;;;;;;21.99;56.26;94384.19;4978647;28;20230;-65
2022/08/15 08:20:30;;;;;;;25.38;23.10;;;;;;;22.32;55.51;94379.19;4964429;28;20313;-65
2022/08/15 08:23:04;;;;;;;25.50;23.45;;;;;;;22.38;55.09;94381.75;4962525;28;20576;-63
2022/08/15 08:25:56;;;;;;;23.55;21.65;;;;;;;22.18;55.83;94376.81;4982113;28;20306;-64
2022/08/15 08:28:34;;;;;;;23.73;21.85;;;;;;;22.20;55.24;94384.63;4983495;28;20434;-66
2022/08/15 08:31:07;;;;;;;23.70;21.77;;;;;;;22.13;55.44;94384.75;4970706;28;20227;-65
2022/08/15 08:33:59;;;;;;;24.00;22.10;;;;;;;22.19;55.33;94383.00;4971645;28;20244;-65
2022/08/15 08:36:28;;;;;;;22.65;20.83;;;;;;;22.38;55.45;94372.91;4987135;28;20231;-66
2022/08/15 08:39:18;;;;;;;22.48;20.67;;;;;;;22.41;54.90;94375.09;5000517;28;20250;-65
2022/08/15 08:41:58;;;;;;;22.90;21.10;;;;;;;22.55;54.81;94367.56;5000753;28;20234;-65
2022/08/15 08:44:33;;;;;;;23.75;21.95;;;;;;;22.88;53.67;94372.09;5006105;28;20580;-66
2022/08/15 08:47:02;;;;;;;23.17;21.08;;;;;;;23.09;53.73;94370.59;4989255;28;20249;-66
2022/08/15 08:50:02;;;;;;;23.80;21.90;;;;;;;23.31;53.53;94373.34;5009417;28;20239;-65
2022/08/15 08:52:39;;;;;;;22.83;20.92;;;;;;;23.43;52.65;94376.72;5009692;28;20225;-66
2022/08/15 08:55:20;;;;;;;21.95;20.25;;;;;;;23.20;52.62;94361.66;4995535;28;20235;-65
2022/08/15 08:58:28;;;;;;;24.08;22.02;;;;;;;23.18;52.77;94357.59;4998870;28;20231;-66
2022/08/15 09:00:55;;;;;;;25.20;23.00;;;;;;;22.91;53.56;94358.25;4993859;28;20256;-66
2022/08/15 09:03:27;;;;;;;24.42;22.33;;;;;;;22.78;54.16;94356.69;4980739;28;20299;-66
2022/08/15 09:05:57;;;;;;;25.23;22.70;;;;;;;22.75;53.62;94349.16;4981718;28;20238;-66
2022/08/15 09:08:30;;;;;;;25.23;23.02;;;;;;;22.81;53.58;94348.16;4978219;28;20272;-65
2022/08/15 09:11:04;;;;;;;23.60;21.60;;;;;;;22.95;53.76;94351.31;4977346;28;20277;-66
2022/08/15 09:13:33;;;;;;;22.77;20.98;;;;;;;23.03;52.82;94339.41;4963996;28;20309;-65
2022/08/15 09:16:21;;;;;;;22.40;20.42;;;;;;;23.15;52.76;94336.63;4979571;28;20223;-65
2022/08/15 09:19:14;;;;;;;22.58;20.67;;;;;;;23.31;51.22;94351.91;4975773;28;20235;-65
2022/08/15 09:21:42;;;;;;;21.55;19.75;;;;;;;23.29;51.53;94343.28;4971359;28;20227;-65
2022/08/15 09:24:08;;;;;;;22.13;20.42;;;;;;;23.39;51.10;94345.25;4962967;28;20255;-69
2022/08/15 09:26:40;;;;;;;21.83;20.13;;;;;;;23.40;50.50;94346.91;4967267;28;20227;-64
2022/08/15 09:29:15;;;;;;;21.90;20.15;;;;;;;23.55;50.60;94345.25;4977757;28;20733;-65
2022/08/15 09:31:46;;;;;;;21.35;19.63;;;;;;;23.75;49.81;94347.38;4976235;28;20314;-65
2022/08/15 09:34:33;;;;;;;21.23;19.52;;;;;;;23.98;49.46;94343.63;4975833;28;20273;-65
2022/08/15 09:37:09;;;;;;;21.88;19.98;;;;;;;24.10;49.58;94335.41;4988268;28;20270;-66
2022/08/15 09:40:00;;;;;;;22.15;20.27;;;;;;;24.24;49.02;94337.72;4989687;28;20245;-64
2022/08/15 09:42:44;;;;;;;21.38;19.77;;;;;;;24.10;49.29;94335.41;4981773;28;20269;-65
2022/08/15 09:45:16;;;;;;;20.83;18.95;;;;;;;24.25;48.67;94347.41;4987626;28;20359;-65
2022/08/15 09:48:00;;;;;;;20.25;18.65;;;;;;;24.35;48.10;94337.56;4983265;28;20227;-64
2022/08/15 09:50:58;;;;;;;19.58;17.88;;;;;;;24.69;48.29;94344.63;4983578;28;20199;-65
2022/08/15 09:53:24;;;;;;;18.95;17.35;;;;;;;24.82;47.84;94334.22;4999152;28;20206;-64
2022/08/15 09:55:51;;;;;;;18.85;17.38;;;;;;;24.93;47.13;94334.31;4986381;28;20204;-65
2022/08/15 09:58:31;;;;;;;18.45;17.05;;;;;;;24.95;45.95;94338.38;4988529;28;20227;-65
2022/08/15 10:01:18;;;;;;;18.27;16.88;;;;;;;24.88;46.12;94332.38;4983088;28;20587;-65
2022/08/15 10:03:43;;;;;;;18.23;16.85;;;;;;;25.15;45.96;94334.19;4986266;28;20232;-65
2022/08/15 10:06:24;;;;;;;17.38;16.08;;;;;;;25.32;45.58;94334.06;4985026;28;20234;-66
2022/08/15 10:08:55;;;;;;;19.02;17.58;;;;;;;25.58;45.71;94343.91;4989722;28;20223;-66
2022/08/15 10:11:52;;;;;;;18.10;16.73;;;;;;;25.75;45.00;94335.63;5006265;28;20210;-65
2022/08/15 10:14:21;;;;;;;17.60;16.25;;;;;;;25.83;44.56;94334.31;4984169;28;20219;-67
2022/08/15 10:16:52;;;;;;;17.77;16.48;;;;;;;25.74;45.14;94334.00;4989974;28;20233;-65
2022/08/15 10:19:34;;;;;;;18.35;16.92;;;;;;;25.66;44.77;94332.63;4987523;28;20231;-66
2022/08/15 10:22:22;;;;;;;18.23;16.90;;;;;;;25.81;44.69;94321.09;4992891;28;20227;-67
2022/08/15 10:25:28;;;;;;;17.58;16.27;;;;;;;26.09;44.04;94325.28;4989133;28;20230;-67
2022/08/15 10:28:25;;;;;;;18.25;16.85;;;;;;;26.13;43.24;94325.56;5003861;28;20254;-66
2022/08/15 10:31:04;;;;;;;17.50;16.20;;;;;;;26.08;43.65;94328.22;5003611;28;20227;-66
2022/08/15 10:33:33;;;;;;;16.98;15.68;;;;;;;26.44;43.18;94321.03;5000893;28;20238;-66
2022/08/15 10:36:13;;;;;;;16.42;15.23;;;;;;;26.51;42.23;94313.50;5002373;28;20617;-66
2022/08/15 10:38:57;;;;;;;14.35;13.20;;;;;;;26.49;42.09;94312.13;5003286;28;20230;-66
2022/08/15 10:41:23;;;;;;;15.18;13.98;;;;;;;26.50;43.00;94308.38;5005246;28;20218;-67
2022/08/15 10:43:57;;;;;;;14.43;13.32;;;;;;;26.83;41.57;94315.94;5001109;28;20203;-65
2022/08/15 10:46:51;;;;;;;12.75;11.75;;;;;;;27.06;40.54;94308.38;4996950;28;20249;-65
2022/08/15 10:49:27;;;;;;;12.90;11.80;;;;;;;26.96;40.94;94295.69;5003448;28;20226;-66
2022/08/15 10:52:27;;;;;;;13.00;11.93;;;;;;;27.24;40.07;94307.84;5001526;28;20231;-64
2022/08/15 10:55:32;;;;;;;12.38;11.48;;;;;;;27.25;40.18;94314.03;4988012;28;20227;-65
2022/08/15 10:58:24;;;;;;;12.45;11.52;;;;;;;27.47;40.01;94308.31;4993192;28;20231;-65
2022/08/15 11:00:57;;;;;;;11.85;10.85;;;;;;;27.49;39.15;94303.47;4986815;28;20227;-65
2022/08/15 11:03:55;;;;;;;13.07;12.02;;;;;;;27.46;39.47;94304.00;4993946;28;20231;-66
2022/08/15 11:06:23;;;;;;;12.23;11.27;;;;;;;27.36;39.66;94302.13;4998430;28;20227;-67
2022/08/15 11:08:50;;;;;;;11.52;10.63;;;;;;;27.12;38.98;94295.69;5002247;28;20259;-66
2022/08/15 11:11:19;;;;;;;11.48;10.52;;;;;;;27.44;38.96;94300.78;4988056;28;20765;-67
2022/08/15 11:13:54;;;;;;;11.45;10.55;;;;;;;27.84;37.73;94286.31;4980856;28;20242;-64
2022/08/15 11:16:29;;;;;;;12.32;11.20;;;;;;;28.21;37.10;94293.16;4996561;28;20241;-64
2022/08/15 11:18:58;;;;;;;12.50;11.60;;;;;;;28.14;37.51;94293.44;4971412;28;20456;-65
2022/08/15 11:21:40;;;;;;;11.77;10.82;;;;;;;27.97;37.95;94298.44;4987907;28;20245;-65
2022/08/15 11:24:08;;;;;;;11.82;10.75;;;;;;;27.90;37.96;94300.63;4978843;28;20314;-64
2022/08/15 11:26:41;;;;;;;11.48;10.57;;;;;;;27.96;37.53;94293.28;4971512;28;20230;-65
2022/08/15 11:29:13;;;;;;;11.05;10.25;;;;;;;28.18;36.87;94280.22;4971560;28;20203;-66
2022/08/15 11:31:50;;;;;;;10.57;9.70;;;;;;;28.10;37.11;94278.91;4985840;28;20261;-68
2022/08/15 11:34:29;;;;;;;11.75;10.60;;;;;;;27.98;37.07;94283.81;4967212;28;20233;-65
2022/08/15 11:37:01;;;;;;;11.15;10.30;;;;;;;28.12;37.21;94282.13;4978670;28;20238;-65
2022/08/15 11:39:30;;;;;;;10.63;9.82;;;;;;;27.97;37.16;94284.91;4975592;28;20372;-64
2022/08/15 11:42:03;;;;;;;11.40;10.60;;;;;;;28.00;37.46;94270.84;5002231;28;20254;-65
2022/08/15 11:45:10;;;;;;;10.32;9.52;;;;;;;28.26;35.63;94276.09;4988584;28;20208;-64
2022/08/15 11:47:43;;;;;;;10.48;9.68;;;;;;;28.38;35.48;94281.94;4995023;28;20215;-65
2022/08/15 11:50:26;;;;;;;10.15;9.35;;;;;;;28.51;35.30;94280.53;5004226;28;20206;-65
2022/08/15 11:52:58;;;;;;;10.18;9.40;;;;;;;28.72;35.39;94287.41;4986966;28;20307;-65